| time (UTC) | temp F | wind direction | speed knots | gust knots | rain 1hr in | rain 24hr in | rain mn in | humidity % | barometer mb |
| 20260507083513 | 63 | 97 | 4.3 | 5.2 | 0.00 | 0.06 | 0.04 | 66 | 1016.1 |
| 20260507083012 | 64 | 72 | 0.9 | 7.0 | 0.00 | 0.06 | 0.04 | 64 | 1016.0 |
| 20260507082011 | 65 | 214 | 2.6 | 4.3 | 0.00 | 0.06 | 0.04 | 64 | 1016.0 |
| 20260507081511 | 64 | 170 | 1.7 | 6.1 | 0.00 | 0.06 | 0.04 | 66 | 1016.0 |
| 20260507081011 | 63 | 112 | 0.0 | 5.2 | 0.00 | 0.06 | 0.04 | 67 | 1015.9 |
| 20260507080509 | 62 | 107 | 2.6 | 5.2 | 0.00 | 0.06 | 0.04 | 68 | 1015.7 |
| 20260507080010 | 62 | 123 | 3.5 | 7.0 | 0.00 | 0.06 | 0.04 | 69 | 1015.8 |
| 20260507075509 | 62 | 55 | 3.5 | 9.6 | 0.00 | 0.06 | 0.04 | 70 | 1015.8 |
| 20260507075009 | 63 | 143 | 2.6 | 9.6 | 0.00 | 0.06 | 0.04 | 65 | 1015.8 |
| 20260507074507 | 63 | 103 | 1.7 | 7.0 | 0.00 | 0.06 | 0.04 | 65 | 1015.7 |
| 20260507073507 | 62 | 119 | 3.5 | 10.4 | 0.00 | 0.06 | 0.04 | 69 | 1015.6 |
| 20260507073006 | 62 | 43 | 3.5 | 10.4 | 0.00 | 0.06 | 0.04 | 69 | 1015.6 |
| 20260507072006 | 62 | 244 | 2.6 | 7.0 | 0.00 | 0.06 | 0.04 | 70 | 1015.5 |
| 20260507071505 | 61 | 91 | 2.6 | 7.0 | 0.00 | 0.06 | 0.04 | 72 | 1015.4 |
| 20260507071004 | 62 | 312 | 3.5 | 6.1 | 0.00 | 0.06 | 0.04 | 71 | 1015.3 |
| 20260507070504 | 64 | 79 | 2.6 | 5.2 | 0.00 | 0.06 | 0.04 | 67 | 1015.3 |
| 20260507070005 | 64 | 236 | 1.7 | 5.2 | 0.00 | 0.06 | 0.04 | 68 | 1015.5 |
| 20260507065503 | 64 | 271 | 2.6 | 4.3 | 0.00 | 0.06 | 0.04 | 67 | 1015.3 |
| 20260507065003 | 64 | 194 | 0.0 | 5.2 | 0.00 | 0.06 | 0.04 | 68 | 1015.2 |
| 20260507064501 | 61 | 245 | 1.7 | 7.8 | 0.00 | 0.06 | 0.04 | 72 | 1015.3 |
| 20260507064002 | 61 | 85 | 0.9 | 7.8 | 0.00 | 0.06 | 0.04 | 73 | 1015.3 |
| 20260507063000 | 59 | 118 | 0.9 | 8.7 | 0.00 | 0.06 | 0.04 | 76 | 1015.3 |
| 20260507062459 | 59 | 285 | 1.7 | 5.2 | 0.00 | 0.06 | 0.04 | 77 | 1015.2 |
| 20260507062000 | 60 | 86 | 2.6 | 5.2 | 0.00 | 0.06 | 0.04 | 77 | 1015.1 |
| 20260507061459 | 60 | 358 | 1.7 | 6.1 | 0.00 | 0.06 | 0.04 | 77 | 1015.1 |
| 20260507060958 | 59 | 128 | 1.7 | 6.1 | 0.00 | 0.06 | 0.04 | 78 | 1015.3 |
| 20260507060457 | 59 | 239 | 0.9 | 5.2 | 0.00 | 0.06 | 0.04 | 79 | 1015.2 |
| 20260507055957 | 58 | 341 | 0.9 | 6.1 | 0.00 | 0.06 | 0.04 | 78 | 1015.1 |
| 20260507055457 | 57 | 250 | 0.9 | 6.1 | 0.00 | 0.06 | 0.04 | 81 | 1015.0 |
| 20260507054958 | 57 | 143 | 1.7 | 5.2 | 0.00 | 0.06 | 0.04 | 81 | 1015.1 |
| 20260507054455 | 57 | 173 | 1.7 | 5.2 | 0.00 | 0.06 | 0.04 | 82 | 1015.1 |
| 20260507053955 | 57 | 39 | 2.6 | 4.3 | 0.00 | 0.06 | 0.04 | 81 | 1015.0 |
| 20260507053455 | 57 | 145 | 2.6 | 4.3 | 0.00 | 0.06 | 0.04 | 81 | 1015.2 |
| 20260507052955 | 56 | 86 | 2.6 | 7.0 | 0.00 | 0.06 | 0.04 | 82 | 1015.0 |
| 20260507052453 | 56 | 230 | 2.6 | 7.0 | 0.00 | 0.06 | 0.04 | 83 | 1015.0 |
| 20260507051953 | 56 | 330 | 1.7 | 7.0 | 0.00 | 0.06 | 0.04 | 84 | 1014.8 |
| 20260507051453 | 56 | 214 | 0.0 | 4.3 | 0.00 | 0.06 | 0.04 | 84 | 1015.0 |
| 20260507050451 | 55 | 106 | 2.6 | 7.0 | 0.00 | 0.06 | 0.04 | 86 | 1014.5 |
| 20260507045951 | 55 | 347 | 0.9 | 9.6 | 0.00 | 0.06 | 0.04 | 87 | 1014.5 |
| 20260507045451 | 55 | 79 | 5.2 | 9.6 | 0.00 | 0.06 | 0.04 | 88 | 1014.6 |
| 20260507044449 | 55 | 204 | 2.6 | 12.2 | 0.00 | 0.06 | 0.04 | 88 | 1014.3 |
| 20260507043449 | 55 | 83 | 2.6 | 7.0 | 0.00 | 0.06 | 0.04 | 88 | 1013.9 |
| 20260507042447 | 55 | 84 | 4.3 | 8.7 | 0.00 | 0.06 | 0.04 | 89 | 1014.0 |
| 20260507041946 | 55 | 69 | 1.7 | 9.6 | 0.00 | 0.06 | 0.04 | 89 | 1013.7 |
| 20260507041446 | 55 | 357 | 2.6 | 9.6 | 0.00 | 0.06 | 0.04 | 89 | 1013.5 |
| 20260507040945 | 55 | 170 | 1.7 | 11.3 | 0.00 | 0.06 | 0.04 | 89 | 1013.5 |
| 20260507040446 | 55 | 349 | 2.6 | 11.3 | 0.00 | 0.06 | 0.04 | 89 | 1013.4 |
| 20260507035945 | 55 | 330 | 0.9 | 10.4 | 0.00 | 0.06 | 0.04 | 89 | 1013.4 |
| 20260507035444 | 55 | 81 | 3.5 | 12.2 | 0.01 | 0.06 | 0.04 | 89 | 1013.5 |
| 20260507034944 | 55 | 151 | 1.7 | 12.2 | 0.01 | 0.06 | 0.04 | 89 | 1013.5 |
| 20260507034443 | 55 | 66 | 3.5 | 8.7 | 0.01 | 0.06 | 0.04 | 90 | 1013.6 |
| 20260507033942 | 55 | 47 | 3.5 | 11.3 | 0.02 | 0.06 | 0.04 | 90 | 1013.6 |
| 20260507033442 | 55 | 83 | 3.5 | 11.3 | 0.02 | 0.06 | 0.04 | 90 | 1013.6 |
| 20260507032942 | 55 | 78 | 5.2 | 8.7 | 0.02 | 0.06 | 0.04 | 90 | 1013.6 |
| 20260507032440 | 55 | 73 | 7.0 | 7.0 | 0.03 | 0.06 | 0.04 | 90 | 1013.7 |
| 20260507031941 | 55 | 259 | 1.7 | 6.1 | 0.03 | 0.06 | 0.04 | 89 | 1013.7 |
| 20260507031440 | 55 | 235 | 1.7 | 13.0 | 0.03 | 0.06 | 0.04 | 88 | 1014.0 |
| 20260507030939 | 55 | 169 | 3.5 | 13.0 | 0.02 | 0.06 | 0.04 | 89 | 1013.8 |
| 20260507030439 | 55 | 48 | 2.6 | 11.3 | 0.03 | 0.06 | 0.04 | 89 | 1013.9 |
| 20260507025437 | 55 | 109 | 4.3 | 10.4 | 0.03 | 0.05 | 0.03 | 90 | 1014.0 |
| 20260507024937 | 55 | 70 | 3.5 | 10.4 | 0.02 | 0.05 | 0.03 | 89 | 1014.0 |
| 20260507024437 | 55 | 72 | 6.1 | 9.6 | 0.03 | 0.05 | 0.03 | 89 | 1014.0 |
| 20260507023936 | 56 | 91 | 4.3 | 7.0 | 0.02 | 0.04 | 0.02 | 88 | 1013.9 |
| 20260507022936 | 56 | 155 | 1.7 | 7.8 | 0.02 | 0.04 | 0.02 | 88 | 1014.0 |
| 20260507022436 | 56 | 10 | 3.5 | 7.8 | 0.01 | 0.03 | 0.01 | 88 | 1013.7 |
| 20260507021434 | 56 | 186 | 1.7 | 7.8 | 0.01 | 0.03 | 0.01 | 85 | 1013.6 |
| 20260507020934 | 56 | 87 | 1.7 | 7.0 | 0.01 | 0.03 | 0.01 | 86 | 1013.6 |
| 20260507020433 | 56 | 165 | 2.6 | 5.2 | 0.01 | 0.03 | 0.01 | 86 | 1013.6 |
| 20260507015932 | 56 | 33 | 1.7 | 5.2 | 0.01 | 0.03 | 0.01 | 86 | 1013.7 |
| 20260507015432 | 56 | 111 | 4.3 | 4.3 | 0.00 | 0.02 | 0.00 | 86 | 1013.6 |
| 20260507014431 | 57 | 242 | 1.7 | 8.7 | 0.00 | 0.02 | 0.00 | 85 | 1013.8 |
| 20260507013931 | 57 | 210 | 1.7 | 7.0 | 0.00 | 0.02 | 0.00 | 85 | 1013.8 |
| 20260507013430 | 57 | 267 | 2.6 | 6.1 | 0.00 | 0.02 | 0.00 | 84 | 1013.8 |
| 20260507012929 | 57 | 224 | 2.6 | 7.8 | 0.00 | 0.02 | 0.00 | 84 | 1013.9 |
| 20260507012429 | 57 | 69 | 2.6 | 7.8 | 0.00 | 0.02 | 0.00 | 84 | 1013.8 |
| 20260507011928 | 57 | 187 | 3.5 | 5.2 | 0.00 | 0.02 | 0.00 | 83 | 1013.8 |
| 20260507011428 | 57 | 128 | 0.9 | 6.1 | 0.00 | 0.02 | 0.00 | 83 | 1013.7 |
| 20260507010426 | 57 | 235 | 3.5 | 10.4 | 0.00 | 0.02 | 0.00 | 82 | 1013.5 |
| 20260507005927 | 57 | 284 | 3.5 | 10.4 | 0.00 | 0.02 | 0.00 | 82 | 1013.7 |
| 20260507005425 | 57 | 143 | 2.6 | 7.0 | 0.00 | 0.02 | 0.00 | 82 | 1013.6 |
| 20260507004926 | 57 | 276 | 3.5 | 7.0 | 0.00 | 0.02 | 0.00 | 82 | 1013.6 |
| 20260507003924 | 57 | 218 | 1.7 | 7.0 | 0.00 | 0.02 | 0.00 | 82 | 1013.6 |
| 20260507003424 | 57 | 214 | 2.6 | 9.6 | 0.00 | 0.02 | 0.00 | 83 | 1013.9 |
| 20260507002923 | 57 | 268 | 2.6 | 9.6 | 0.00 | 0.02 | 0.00 | 83 | 1013.8 |
| 20260507001922 | 57 | 86 | 1.7 | 13.9 | 0.00 | 0.02 | 0.00 | 83 | 1013.4 |
| 20260507001421 | 57 | 84 | 7.0 | 15.6 | 0.00 | 0.02 | 0.00 | 83 | 1013.6 |
| 20260507000420 | 57 | 86 | 7.8 | 19.1 | 0.00 | 0.02 | 0.00 | 82 | 1013.3 |
| 20260506235921 | 57 | 68 | 1.7 | 19.1 | 0.00 | 0.02 | 0.00 | 82 | 1013.5 |
| 20260506235419 | 58 | 67 | 4.3 | 14.8 | 0.00 | 0.02 | 0.00 | 82 | 1013.4 |
| 20260506234919 | 58 | 93 | 7.8 | 14.8 | 0.00 | 0.02 | 0.00 | 81 | 1013.3 |
| 20260506234418 | 58 | 80 | 6.1 | 13.0 | 0.00 | 0.02 | 0.00 | 81 | 1013.3 |
| 20260506233919 | 58 | 83 | 7.0 | 10.4 | 0.00 | 0.02 | 0.00 | 81 | 1013.1 |
| 20260506233417 | 58 | 79 | 4.3 | 9.6 | 0.00 | 0.02 | 0.00 | 81 | 1013.4 |
| 20260506232916 | 58 | 57 | 3.5 | 11.3 | 0.00 | 0.02 | 0.00 | 81 | 1013.7 |
| 20260506232416 | 58 | 105 | 2.6 | 11.3 | 0.00 | 0.02 | 0.00 | 81 | 1013.5 |
| 20260506231916 | 58 | 28 | 4.3 | 17.4 | 0.00 | 0.02 | 0.00 | 80 | 1013.6 |
| 20260506231415 | 58 | 182 | 4.3 | 17.4 | 0.00 | 0.02 | 0.00 | 80 | 1013.8 |
| 20260506230915 | 58 | 89 | 4.3 | 13.0 | 0.00 | 0.02 | 0.00 | 80 | 1013.6 |
| 20260506230414 | 58 | 94 | 5.2 | 12.2 | 0.00 | 0.02 | 0.00 | 80 | 1014.0 |
| 20260506225914 | 58 | 167 | 2.6 | 11.3 | 0.00 | 0.02 | 0.00 | 79 | 1013.6 |
| 20260506225413 | 58 | 84 | 4.3 | 9.6 | 0.00 | 0.02 | 0.00 | 79 | 1013.8 |
| 20260506224913 | 58 | 78 | 1.7 | 12.2 | 0.00 | 0.02 | 0.00 | 79 | 1014.0 |
| 20260506224412 | 58 | 8 | 2.6 | 13.9 | 0.00 | 0.02 | 0.00 | 79 | 1013.8 |
| 20260506223913 | 58 | 95 | 4.3 | 13.9 | 0.00 | 0.02 | 0.00 | 79 | 1013.8 |
| 20260506223411 | 58 | 101 | 5.2 | 18.2 | 0.00 | 0.02 | 0.00 | 80 | 1013.5 |
| 20260506222911 | 58 | 37 | 4.3 | 18.2 | 0.00 | 0.02 | 0.00 | 79 | 1013.6 |
| 20260506222410 | 58 | 97 | 7.8 | 12.2 | 0.00 | 0.02 | 0.00 | 79 | 1013.7 |
| 20260506221910 | 58 | 265 | 3.5 | 13.0 | 0.00 | 0.02 | 0.00 | 79 | 1013.8 |
| 20260506221409 | 58 | 79 | 4.3 | 13.0 | 0.00 | 0.02 | 0.00 | 79 | 1013.8 |
| 20260506220408 | 58 | 85 | 7.0 | 13.0 | 0.00 | 0.02 | 0.00 | 78 | 1014.1 |
| 20260506215908 | 58 | 107 | 9.6 | 13.0 | 0.00 | 0.02 | 0.02 | 78 | 1014.0 |
| 20260506215407 | 58 | 104 | 5.2 | 11.3 | 0.00 | 0.02 | 0.02 | 78 | 1013.9 |
| 20260506214907 | 58 | 359 | 4.3 | 11.3 | 0.00 | 0.02 | 0.02 | 78 | 1013.8 |
| 20260506213906 | 58 | 71 | 5.2 | 15.6 | 0.00 | 0.02 | 0.02 | 78 | 1014.0 |
| 20260506213405 | 58 | 95 | 8.7 | 15.6 | 0.00 | 0.02 | 0.02 | 78 | 1013.8 |
| 20260506212905 | 58 | 76 | 6.1 | 11.3 | 0.00 | 0.02 | 0.02 | 78 | 1013.7 |
| 20260506212404 | 58 | 58 | 4.3 | 10.4 | 0.00 | 0.02 | 0.02 | 78 | 1013.8 |
| 20260506211903 | 58 | 68 | 3.5 | 10.4 | 0.00 | 0.02 | 0.02 | 78 | 1013.9 |
| 20260506211403 | 58 | 108 | 4.3 | 9.6 | 0.00 | 0.02 | 0.02 | 78 | 1013.8 |
| 20260506210903 | 58 | 117 | 2.6 | 9.6 | 0.00 | 0.02 | 0.02 | 79 | 1013.8 |
| 20260506210402 | 58 | 46 | 5.2 | 11.3 | 0.00 | 0.02 | 0.02 | 79 | 1013.9 |
| 20260506205902 | 58 | 82 | 3.5 | 11.3 | 0.00 | 0.02 | 0.02 | 78 | 1014.1 |
| 20260506205401 | 58 | 72 | 2.6 | 11.3 | 0.00 | 0.02 | 0.02 | 79 | 1014.0 |
| 20260506204400 | 58 | 164 | 1.7 | 7.8 | 0.00 | 0.02 | 0.02 | 79 | 1014.4 |
| 20260506203900 | 58 | 62 | 1.7 | 9.6 | 0.00 | 0.02 | 0.02 | 79 | 1014.4 |
| 20260506203359 | 58 | 50 | 3.5 | 9.6 | 0.00 | 0.02 | 0.02 | 79 | 1014.4 |
| 20260506202858 | 58 | 77 | 5.2 | 13.9 | 0.00 | 0.02 | 0.02 | 79 | 1014.2 |
| 20260506202358 | 58 | 93 | 5.2 | 13.9 | 0.00 | 0.02 | 0.02 | 79 | 1014.3 |
| 20260506200856 | 58 | 76 | 8.7 | 12.2 | 0.00 | 0.02 | 0.02 | 78 | 1014.3 |
| 20260506200356 | 58 | 292 | 1.7 | 12.2 | 0.00 | 0.02 | 0.02 | 78 | 1014.5 |
| 20260506195856 | 59 | 2 | 1.7 | 9.6 | 0.00 | 0.02 | 0.02 | 78 | 1014.4 |
| 20260506195355 | 59 | 97 | 2.6 | 11.3 | 0.00 | 0.02 | 0.02 | 77 | 1014.4 |
| 20260506193854 | 59 | 28 | 5.2 | 11.3 | 0.00 | 0.02 | 0.02 | 75 | 1014.0 |
| 20260506193353 | 59 | 343 | 2.6 | 10.4 | 0.00 | 0.02 | 0.02 | 75 | 1014.0 |
| 20260506192852 | 59 | 84 | 3.5 | 7.8 | 0.00 | 0.02 | 0.02 | 74 | 1014.1 |
| 20260506192352 | 59 | 81 | 2.6 | 9.6 | 0.00 | 0.02 | 0.02 | 74 | 1014.0 |
| 20260506191852 | 59 | 126 | 1.7 | 10.4 | 0.00 | 0.02 | 0.02 | 74 | 1013.9 |
| 20260506190850 | 59 | 137 | 6.1 | 9.6 | 0.00 | 0.02 | 0.02 | 73 | 1013.5 |
| 20260506190350 | 59 | 52 | 1.7 | 6.1 | 0.00 | 0.02 | 0.02 | 74 | 1013.7 |
| 20260506185849 | 59 | 84 | 1.7 | 6.1 | 0.00 | 0.02 | 0.02 | 74 | 1013.5 |
| 20260506185349 | 59 | 94 | 5.2 | 8.7 | 0.00 | 0.02 | 0.02 | 74 | 1013.6 |
| 20260506184849 | 59 | 279 | 2.6 | 8.7 | 0.00 | 0.02 | 0.02 | 74 | 1013.3 |
| 20260506184348 | 59 | 253 | 2.6 | 7.0 | 0.00 | 0.02 | 0.02 | 76 | 1013.3 |
| 20260506183848 | 59 | 267 | 1.7 | 11.3 | 0.00 | 0.02 | 0.02 | 76 | 1013.4 |
| 20260506183347 | 59 | 341 | 1.7 | 12.2 | 0.00 | 0.02 | 0.02 | 76 | 1013.1 |
| 20260506182846 | 59 | 215 | 1.7 | 12.2 | 0.00 | 0.02 | 0.02 | 76 | 1013.4 |
| 20260506182346 | 59 | 299 | 0.9 | 12.2 | 0.00 | 0.02 | 0.02 | 76 | 1013.4 |
| 20260506181846 | 60 | 52 | 5.2 | 10.4 | 0.00 | 0.02 | 0.02 | 76 | 1013.2 |
| 20260506181345 | 60 | 94 | 4.3 | 9.6 | 0.00 | 0.02 | 0.02 | 75 | 1013.4 |
| 20260506180844 | 60 | 110 | 3.5 | 11.3 | 0.00 | 0.02 | 0.02 | 75 | 1013.5 |
| 20260506180344 | 60 | 110 | 3.5 | 13.0 | 0.00 | 0.02 | 0.02 | 75 | 1013.2 |
| 20260506175845 | 60 | 55 | 10.4 | 13.0 | 0.00 | 0.02 | 0.02 | 74 | 1013.2 |
| 20260506174341 | 61 | 70 | 0.9 | 11.3 | 0.00 | 0.02 | 0.02 | 73 | 1013.2 |
| 20260506173842 | 61 | 116 | 2.6 | 11.3 | 0.00 | 0.02 | 0.02 | 74 | 1013.1 |
| 20260506173342 | 60 | 77 | 2.6 | 9.6 | 0.00 | 0.02 | 0.02 | 76 | 1013.3 |
| 20260506172841 | 61 | 20 | 2.6 | 9.6 | 0.00 | 0.02 | 0.02 | 76 | 1013.0 |
| 20260506172340 | 61 | 300 | 3.5 | 6.1 | 0.00 | 0.02 | 0.02 | 76 | 1013.1 |
| 20260506171839 | 61 | 211 | 2.6 | 7.8 | 0.00 | 0.02 | 0.02 | 76 | 1013.2 |
| 20260506171339 | 61 | 271 | 0.9 | 7.8 | 0.00 | 0.02 | 0.02 | 78 | 1013.1 |
| 20260506170838 | 61 | 146 | 0.0 | 5.2 | 0.00 | 0.02 | 0.02 | 78 | 1013.2 |
| 20260506165337 | 61 | 163 | 0.0 | 3.5 | 0.02 | 0.02 | 0.02 | 78 | 1013.3 |
| 20260506164837 | 61 | 298 | 0.0 | 3.5 | 0.02 | 0.02 | 0.02 | 78 | 1013.2 |
| 20260506164335 | 61 | 62 | 1.7 | 5.2 | 0.02 | 0.02 | 0.02 | 78 | 1013.3 |
| 20260506163835 | 61 | 116 | 1.7 | 5.2 | 0.02 | 0.02 | 0.02 | 79 | 1013.4 |
| 20260506162834 | 61 | 219 | 0.9 | 4.3 | 0.02 | 0.02 | 0.02 | 79 | 1013.2 |
| 20260506162333 | 60 | 150 | 1.7 | 3.5 | 0.02 | 0.02 | 0.02 | 80 | 1013.2 |
| 20260506161832 | 60 | 247 | 1.7 | 3.5 | 0.02 | 0.02 | 0.02 | 81 | 1013.2 |
| 20260506161332 | 60 | 273 | 0.9 | 3.5 | 0.02 | 0.02 | 0.02 | 82 | 1013.4 |
| 20260506160832 | 60 | 176 | 2.6 | 5.2 | 0.02 | 0.02 | 0.02 | 82 | 1013.4 |
| 20260506155832 | 61 | 111 | 1.7 | 16.5 | 0.02 | 0.02 | 0.02 | 80 | 1013.3 |
| 20260506155330 | 63 | 99 | 4.3 | 9.6 | 0.00 | 0.00 | 0.00 | 68 | 1013.5 |
| 20260506154329 | 64 | 348 | 1.7 | 6.1 | 0.00 | 0.00 | 0.00 | 64 | 1013.4 |
| 20260506153829 | 64 | 84 | 1.7 | 6.1 | 0.00 | 0.00 | 0.00 | 63 | 1013.4 |
| 20260506153328 | 65 | 14 | 4.3 | 6.1 | 0.00 | 0.00 | 0.00 | 61 | 1013.2 |
| 20260506152828 | 65 | 18 | 3.5 | 5.2 | 0.00 | 0.00 | 0.00 | 62 | 1013.3 |
| 20260506152327 | 65 | 189 | 0.0 | 6.1 | 0.00 | 0.00 | 0.00 | 61 | 1012.8 |
| 20260506151827 | 65 | 62 | 2.6 | 7.0 | 0.00 | 0.00 | 0.00 | 62 | 1013.0 |
| 20260506151327 | 64 | 95 | 2.6 | 7.0 | 0.00 | 0.00 | 0.00 | 64 | 1013.1 |
| 20260506150326 | 65 | 333 | 0.0 | 6.1 | 0.00 | 0.00 | 0.00 | 63 | 1013.3 |
| 20260506145824 | 65 | 99 | 4.3 | 5.2 | 0.00 | 0.00 | 0.00 | 63 | 1013.1 |
| 20260506144824 | 65 | 104 | 3.5 | 7.8 | 0.00 | 0.00 | 0.00 | 62 | 1013.0 |
| 20260506144323 | 65 | 61 | 2.6 | 7.0 | 0.00 | 0.00 | 0.00 | 61 | 1013.1 |
| 20260506143823 | 66 | 277 | 2.6 | 5.2 | 0.00 | 0.00 | 0.00 | 62 | 1013.1 |
| 20260506142321 | 66 | 111 | 4.3 | 7.8 | 0.00 | 0.00 | 0.00 | 61 | 1013.1 |
| 20260506141320 | 66 | 96 | 2.6 | 7.8 | 0.00 | 0.00 | 0.00 | 60 | 1013.1 |
| 20260506140820 | 66 | 67 | 2.6 | 7.8 | 0.00 | 0.00 | 0.00 | 60 | 1013.1 |
| 20260506140319 | 66 | 50 | 3.5 | 7.8 | 0.00 | 0.00 | 0.00 | 61 | 1013.1 |
| 20260506135318 | 66 | 27 | 3.5 | 8.7 | 0.00 | 0.00 | 0.00 | 61 | 1013.3 |
| 20260506134317 | 66 | 109 | 4.3 | 9.6 | 0.00 | 0.00 | 0.00 | 62 | 1013.3 |
| 20260506133316 | 65 | 54 | 5.2 | 10.4 | 0.00 | 0.00 | 0.00 | 62 | 1013.6 |
| 20260506132815 | 65 | 198 | 3.5 | 10.4 | 0.00 | 0.00 | 0.00 | 62 | 1013.7 |
| 20260506132315 | 66 | 124 | 0.9 | 10.4 | 0.00 | 0.00 | 0.00 | 61 | 1013.6 |
| 20260506131815 | 66 | 88 | 3.5 | 11.3 | 0.00 | 0.00 | 0.00 | 61 | 1013.6 |
| 20260506131314 | 65 | 37 | 1.7 | 11.3 | 0.00 | 0.00 | 0.00 | 61 | 1013.4 |
| 20260506130814 | 66 | 48 | 6.1 | 13.9 | 0.00 | 0.00 | 0.00 | 59 | 1013.3 |
| 20260506130314 | 66 | 107 | 6.1 | 18.2 | 0.00 | 0.00 | 0.00 | 59 | 1013.4 |
| 20260506125812 | 67 | 140 | 1.7 | 18.2 | 0.00 | 0.00 | 0.00 | 58 | 1013.6 |
| 20260506125312 | 66 | 95 | 7.0 | 13.0 | 0.00 | 0.00 | 0.00 | 59 | 1013.6 |
| 20260506124311 | 66 | 101 | 3.5 | 13.9 | 0.00 | 0.00 | 0.00 | 58 | 1013.5 |
| 20260506123811 | 66 | 98 | 4.3 | 13.9 | 0.00 | 0.00 | 0.00 | 59 | 1013.7 |
| 20260506123309 | 66 | 98 | 6.1 | 13.9 | 0.00 | 0.00 | 0.00 | 59 | 1013.7 |
| 20260506122810 | 66 | 75 | 5.2 | 9.6 | 0.00 | 0.00 | 0.00 | 59 | 1013.5 |
| 20260506122309 | 66 | 112 | 5.2 | 8.7 | 0.00 | 0.00 | 0.00 | 58 | 1013.7 |
| 20260506121809 | 66 | 82 | 1.7 | 13.0 | 0.00 | 0.00 | 0.00 | 58 | 1013.7 |
| 20260506121308 | 67 | 158 | 2.6 | 13.0 | 0.00 | 0.00 | 0.00 | 57 | 1013.7 |
| 20260506120808 | 67 | 89 | 10.4 | 15.6 | 0.00 | 0.00 | 0.00 | 56 | 1013.3 |
| 20260506120307 | 67 | 17 | 1.7 | 15.6 | 0.00 | 0.00 | 0.00 | 56 | 1013.5 |
| 20260506115806 | 66 | 105 | 7.8 | 11.3 | 0.00 | 0.00 | 0.00 | 57 | 1013.5 |
| 20260506115307 | 67 | 74 | 2.6 | 11.3 | 0.00 | 0.00 | 0.00 | 57 | 1013.6 |
| 20260506113804 | 68 | 19 | 1.7 | 10.4 | 0.00 | 0.00 | 0.00 | 57 | 1013.5 |
| 20260506113303 | 67 | 103 | 2.6 | 10.4 | 0.00 | 0.00 | 0.00 | 59 | 1013.4 |
| 20260506112803 | 68 | 64 | 5.2 | 14.8 | 0.00 | 0.00 | 0.00 | 59 | 1013.5 |
| 20260506112305 | 67 | 84 | 7.8 | 14.8 | 0.00 | 0.00 | 0.00 | 61 | 1013.5 |
| 20260506111802 | 69 | 103 | 3.5 | 10.4 | 0.00 | 0.00 | 0.00 | 58 | 1013.5 |
| 20260506111301 | 69 | 52 | 0.9 | 11.3 | 0.00 | 0.00 | 0.00 | 58 | 1013.4 |
| 20260506110802 | 68 | 78 | 4.3 | 11.3 | 0.00 | 0.00 | 0.00 | 60 | 1013.5 |
| 20260506105801 | 67 | 142 | 3.5 | 8.7 | 0.00 | 0.00 | 0.00 | 60 | 1013.8 |
| 20260506105259 | 68 | 147 | 1.7 | 8.7 | 0.00 | 0.00 | 0.00 | 60 | 1013.6 |
| 20260506104800 | 69 | 281 | 1.7 | 7.8 | 0.00 | 0.00 | 0.00 | 59 | 1013.7 |
| 20260506104258 | 69 | 65 | 2.6 | 7.0 | 0.00 | 0.00 | 0.00 | 59 | 1013.8 |
| 20260506103758 | 67 | 99 | 5.2 | 7.0 | 0.00 | 0.00 | 0.00 | 62 | 1013.7 |
| 20260506103257 | 66 | 122 | 3.5 | 6.1 | 0.00 | 0.00 | 0.00 | 63 | 1013.6 |
| 20260506102257 | 65 | 234 | 1.7 | 7.0 | 0.00 | 0.00 | 0.00 | 64 | 1013.9 |
| 20260506101255 | 65 | 211 | 0.0 | 8.7 | 0.00 | 0.00 | 0.00 | 64 | 1013.8 |
| 20260506100254 | 65 | 73 | 6.1 | 12.2 | 0.00 | 0.00 | 0.00 | 64 | 1013.9 |
| 20260506095755 | 65 | 264 | 5.2 | 12.2 | 0.00 | 0.00 | 0.00 | 63 | 1014.0 |
| 20260506095253 | 65 | 104 | 4.3 | 6.1 | 0.00 | 0.00 | 0.00 | 64 | 1013.9 |
| 20260506094754 | 65 | 261 | 3.5 | 6.1 | 0.00 | 0.00 | 0.00 | 63 | 1013.9 |
| 20260506094252 | 65 | 196 | 2.6 | 6.1 | 0.00 | 0.00 | 0.00 | 63 | 1013.9 |
| 20260506093753 | 64 | 178 | 4.3 | 8.7 | 0.00 | 0.00 | 0.00 | 64 | 1013.8 |
| 20260506093252 | 64 | 195 | 1.7 | 8.7 | 0.00 | 0.00 | 0.00 | 64 | 1013.7 |
| 20260506092752 | 63 | 213 | 1.7 | 10.4 | 0.00 | 0.00 | 0.00 | 64 | 1013.9 |
| 20260506092250 | 63 | 260 | 10.4 | 10.4 | 0.00 | 0.00 | 0.00 | 65 | 1013.8 |
| 20260506091750 | 63 | 266 | 0.0 | 5.2 | 0.00 | 0.00 | 0.00 | 65 | 1013.8 |
| 20260506091250 | 63 | 202 | 0.9 | 4.3 | 0.00 | 0.00 | 0.00 | 64 | 1013.9 |
| 20260506090750 | 63 | 33 | 1.7 | 7.0 | 0.00 | 0.00 | 0.00 | 64 | 1013.8 |
| 20260506090248 | 62 | 125 | 1.7 | 9.6 | 0.00 | 0.00 | 0.00 | 64 | 1014.1 |
| 20260506085748 | 62 | 258 | 5.2 | 9.6 | 0.00 | 0.00 | 0.00 | 64 | 1013.7 |
| 20260506085247 | 62 | 92 | 4.3 | 7.8 | 0.00 | 0.00 | 0.00 | 63 | 1014.0 |
| 20260506084748 | 62 | 334 | 1.7 | 7.0 | 0.00 | 0.00 | 0.00 | 62 | 1013.7 |
| 20260506084246 | 62 | 103 | 2.6 | 4.3 | 0.00 | 0.00 | 0.00 | 62 | 1013.8 |
| 20260506083723 | 62 | 321 | 3.5 | 6.1 | 0.00 | 0.00 | 0.00 | 62 | 1013.8 |